Flight Track Log - Related Links

Times and Time Zones

All times are in EST time to prevent confusion due to time zone crossing. See the CSN6840 flight status page for this flight to view local times or setup timezone preferences in your user account.

Time Position Orientation Groundspeed Altitude Reporting Facility
EST Latitude Longitude Course Direction KTS MPH feet Rate Location/Type
Thu 09:47:00 PM 23.4718 113.2271 320° Northwest  Level Estimated
Thu 09:48:00 PM 23.5511 113.1554 320° Northwest  Level Estimated
Thu 09:49:00 PM 23.6305 113.0835 320° Northwest  Level Estimated
Thu 09:50:00 PM 23.7097 113.0116 320° Northwest  Level Estimated
Thu 09:51:00 PM 23.7890 112.9396 320° Northwest  Level Estimated
Thu 09:52:00 PM 23.8682 112.8675 320° Northwest  Level Estimated
Thu 09:53:00 PM 23.9473 112.7953 320° Northwest  Level Estimated
Thu 09:54:00 PM 24.0265 112.7230 320° Northwest  Level Estimated
Thu 09:55:00 PM 24.1056 112.6506 320° Northwest  Level Estimated
Thu 09:56:00 PM 24.1847 112.5782 320° Northwest  Level Estimated
Thu 09:57:00 PM 24.2637 112.5056 320° Northwest  Level Estimated
Thu 09:58:00 PM 24.3427 112.4330 320° Northwest  Level Estimated
Thu 09:59:00 PM 24.4217 112.3603 320° Northwest  Level Estimated
Thu 10:00:00 PM 24.5006 112.2874 320° Northwest  Level Estimated
Thu 10:01:00 PM 24.5795 112.2145 320° Northwest  Level Estimated
Thu 10:02:00 PM 24.6584 112.1415 320° Northwest  Level Estimated
Thu 10:03:00 PM 24.7372 112.0684 320° Northwest  Level Estimated
Thu 10:04:00 PM 24.8160 111.9952 320° Northwest  Level Estimated
Thu 10:05:00 PM 24.8948 111.9219 320° Northwest  Level Estimated
Thu 10:06:00 PM 24.9735 111.8486 320° Northwest  Level Estimated
Thu 10:07:00 PM 25.0522 111.7751 320° Northwest  Level Estimated
Thu 10:08:00 PM 25.1308 111.7015 320° Northwest  Level Estimated
Thu 10:09:00 PM 25.2094 111.6279 320° Northwest  Level Estimated
Thu 10:10:00 PM 25.2880 111.5541 320° Northwest  Level Estimated
Thu 10:11:00 PM 25.3665 111.4802 320° Northwest  Level Estimated
Thu 10:12:00 PM 25.4450 111.4063 320° Northwest  Level Estimated
Thu 10:13:00 PM 25.5235 111.3323 320° Northwest  Level Estimated
Thu 10:14:00 PM 25.6019 111.2581 320° Northwest  Level Estimated
Thu 10:15:00 PM 25.6803 111.1839 320° Northwest  Level Estimated
Thu 10:16:00 PM 25.7587 111.1095 319° Northwest  Level Estimated
Thu 10:17:00 PM 25.8370 111.0351 319° Northwest  Level Estimated
Thu 10:18:00 PM 25.9153 110.9606 319° Northwest  Level Estimated
Thu 10:19:00 PM 25.9935 110.8859 319° Northwest  Level Estimated
Thu 10:20:00 PM 26.0717 110.8112 319° Northwest  Level Estimated
Thu 10:21:00 PM 26.1499 110.7364 319° Northwest  Level Estimated
Thu 10:22:00 PM 26.2280 110.6615 319° Northwest  Level Estimated
Thu 10:23:00 PM 26.3061 110.5864 319° Northwest  Level Estimated
Thu 10:24:00 PM 26.3841 110.5113 319° Northwest  Level Estimated
Thu 10:25:00 PM 26.4621 110.4361 319° Northwest  Level Estimated
Thu 10:26:00 PM 26.5401 110.3607 319° Northwest  Level Estimated
Thu 10:27:00 PM 26.6180 110.2853 319° Northwest  Level Estimated
Thu 10:28:00 PM 26.6959 110.2097 319° Northwest  Level Estimated
Thu 10:29:00 PM 26.7738 110.1341 319° Northwest  Level Estimated
Thu 10:30:00 PM 26.8516 110.0584 319° Northwest  Level Estimated
Thu 10:31:00 PM 26.9294 109.9825 319° Northwest  Level Estimated
Thu 10:32:00 PM 27.0071 109.9065 319° Northwest  Level Estimated
Thu 10:33:00 PM 27.0848 109.8305 319° Northwest  Level Estimated
Thu 10:34:00 PM 27.1624 109.7543 319° Northwest  Level Estimated
Thu 10:35:00 PM 27.2400 109.6780 319° Northwest  Level Estimated
Thu 10:36:00 PM 27.3176 109.6017 319° Northwest  Level Estimated
Thu 10:37:00 PM 27.3951 109.5252 319° Northwest  Level Estimated
Thu 10:38:00 PM 27.4726 109.4486 319° Northwest  Level Estimated
Thu 10:39:00 PM 27.5500 109.3719 319° Northwest  Level Estimated
Thu 10:40:00 PM 27.6274 109.2951 319° Northwest  Level Estimated
Thu 10:41:00 PM 27.7048 109.2182 319° Northwest  Level Estimated
Thu 10:42:00 PM 27.7821 109.1411 319° Northwest  Level Estimated
Thu 10:43:00 PM 27.8593 109.0640 319° Northwest  Level Estimated
Thu 10:44:00 PM 27.9366 108.9867 319° Northwest  Level Estimated
Thu 10:45:00 PM 28.0137 108.9094 319° Northwest  Level Estimated
Thu 10:46:00 PM 28.0909 108.8319 318° Northwest  Level Estimated
Thu 10:47:00 PM 28.1680 108.7543 318° Northwest  Level Estimated
Thu 10:48:00 PM 28.2450 108.6766 318° Northwest  Level Estimated
Thu 10:49:00 PM 28.3220 108.5988 318° Northwest  Level Estimated
Thu 10:50:00 PM 28.3990 108.5209 318° Northwest  Level Estimated
Thu 10:51:00 PM 28.4759 108.4429 318° Northwest  Level Estimated
Thu 10:52:00 PM 28.5528 108.3648 318° Northwest  Level Estimated
Thu 10:53:00 PM 28.6296 108.2865 318° Northwest  Level Estimated
Thu 10:54:00 PM 28.7064 108.2081 318° Northwest  Level Estimated
Thu 10:55:00 PM 28.7831 108.1296 318° Northwest  Level Estimated
Thu 10:56:00 PM 28.8598 108.0510 318° Northwest  Level Estimated
Thu 10:57:00 PM 28.9365 107.9723 318° Northwest  Level Estimated
Thu 10:58:00 PM 29.0131 107.8935 318° Northwest  Level Estimated
Thu 10:59:00 PM 29.0896 107.8145 318° Northwest  Level Estimated
Thu 11:00:00 PM 29.1661 107.7355 318° Northwest  Level Estimated
Thu 11:01:00 PM 29.2426 107.6563 318° Northwest  Level Estimated
Thu 11:02:00 PM 29.3190 107.5770 318° Northwest  Level Estimated
Thu 11:03:00 PM 29.3954 107.4975 318° Northwest  Level Estimated
Thu 11:04:00 PM 29.4717 107.4180 318° Northwest  Level Estimated
Thu 11:05:00 PM 29.5480 107.3383 318° Northwest  Level Estimated
Thu 11:06:00 PM 29.6242 107.2585 318° Northwest  Level Estimated
Thu 11:07:00 PM 29.7004 107.1786 318° Northwest  Level Estimated
Thu 11:08:00 PM 29.7765 107.0986 318° Northwest  Level Estimated
Thu 11:09:00 PM 29.8526 107.0184 318° Northwest  Level Estimated
Thu 11:10:00 PM 29.9286 106.9382 318° Northwest  Level Estimated
Thu 11:11:00 PM 30.0046 106.8578 318° Northwest  Level Estimated
Thu 11:12:00 PM 30.0805 106.7773 317° Northwest  Level Estimated
Thu 11:13:00 PM 30.1564 106.6966 317° Northwest  Level Estimated
Thu 11:14:00 PM 30.2323 106.6159 317° Northwest  Level Estimated
Thu 11:15:00 PM 30.3081 106.5350 317° Northwest  Level Estimated
Thu 11:16:00 PM 30.3838 106.4540 317° Northwest  Level Estimated
Thu 11:17:00 PM 30.4595 106.3728 317° Northwest  Level Estimated
Thu 11:18:00 PM 30.5351 106.2915 317° Northwest  Level Estimated
Thu 11:19:00 PM 30.6107 106.2102 317° Northwest  Level Estimated
Thu 11:20:00 PM 30.6863 106.1286 317° Northwest  Level Estimated
Thu 11:21:00 PM 30.7617 106.0470 317° Northwest  Level Estimated
Thu 11:22:00 PM 30.8372 105.9652 317° Northwest  Level Estimated
Thu 11:23:00 PM 30.9125 105.8833 317° Northwest  Level Estimated
Thu 11:24:00 PM 30.9879 105.8013 317° Northwest  Level Estimated
Thu 11:25:00 PM 31.0632 105.7191 317° Northwest  Level Estimated
Thu 11:26:00 PM 31.1384 105.6368 317° Northwest  Level Estimated
Thu 11:27:00 PM 31.2136 105.5544 317° Northwest  Level Estimated
Thu 11:28:00 PM 31.2887 105.4718 317° Northwest  Level Estimated
Thu 11:29:00 PM 31.3638 105.3892 317° Northwest  Level Estimated
Thu 11:30:00 PM 31.4388 105.3063 317° Northwest  Level Estimated
Thu 11:31:00 PM 31.5137 105.2234 317° Northwest  Level Estimated
Thu 11:32:00 PM 31.5886 105.1403 317° Northwest  Level Estimated
Thu 11:33:00 PM 31.6635 105.0571 317° Northwest  Level Estimated
Thu 11:34:00 PM 31.7383 104.9737 317° Northwest  Level Estimated
Thu 11:35:00 PM 31.8130 104.8903 317° Northwest  Level Estimated
Thu 11:36:00 PM 31.8877 104.8066 316° Northwest  Level Estimated
Thu 11:37:00 PM 31.9624 104.7229 316° Northwest  Level Estimated
Thu 11:38:00 PM 32.0369 104.6390 316° Northwest  Level Estimated
Thu 11:39:00 PM 32.1115 104.5549 316° Northwest  Level Estimated
Thu 11:40:00 PM 32.1860 104.4708 316° Northwest  Level Estimated
Thu 11:41:00 PM 32.2604 104.3865 316° Northwest  Level Estimated
Thu 11:42:00 PM 32.3347 104.3020 316° Northwest  Level Estimated
Thu 11:43:00 PM 32.4090 104.2175 316° Northwest  Level Estimated
Thu 11:44:00 PM 32.4833 104.1327 316° Northwest  Level Estimated
Thu 11:45:00 PM 32.5575 104.0479 316° Northwest  Level Estimated
Thu 11:46:00 PM 32.6316 103.9629 316° Northwest  Level Estimated
Thu 11:47:00 PM 32.7057 103.8777 316° Northwest  Level Estimated
Thu 11:48:00 PM 32.7797 103.7924 316° Northwest  Level Estimated
Thu 11:49:00 PM 32.8536 103.7070 316° Northwest  Level Estimated
Thu 11:50:00 PM 32.9276 103.6214 316° Northwest  Level Estimated
Thu 11:51:00 PM 33.0014 103.5357 316° Northwest  Level Estimated
Thu 11:52:00 PM 33.0752 103.4499 316° Northwest  Level Estimated
Thu 11:53:00 PM 33.1489 103.3639 316° Northwest  Level Estimated
Thu 11:54:00 PM 33.2226 103.2777 316° Northwest  Level Estimated
Thu 11:55:00 PM 33.2962 103.1914 316° Northwest  Level Estimated
Thu 11:56:00 PM 33.3697 103.1050 316° Northwest  Level Estimated
Thu 11:57:00 PM 33.4432 103.0184 315° West  Level Estimated
Thu 11:58:00 PM 33.5167 102.9317 315° West  Level Estimated
Thu 11:59:00 PM 33.5900 102.8448 315° West  Level Estimated
Fri 12:00:00 AM 33.6633 102.7578 315° West  Level Estimated
Fri 12:01:00 AM 33.7366 102.6706 315° West  Level Estimated
Fri 12:02:00 AM 33.8097 102.5833 315° West  Level Estimated
Fri 12:03:00 AM 33.8829 102.4958 315° West  Level Estimated
Fri 12:04:00 AM 33.9559 102.4082 315° West  Level Estimated
Fri 12:05:00 AM 34.0289 102.3204 315° West  Level Estimated
Fri 12:06:00 AM 34.1018 102.2325 315° West  Level Estimated
Fri 12:07:00 AM 34.1747 102.1444 315° West  Level Estimated
Fri 12:08:00 AM 34.2475 102.0562 315° West  Level Estimated
Fri 12:09:00 AM 34.3203 101.9678 315° West  Level Estimated
Fri 12:10:00 AM 34.3930 101.8793 315° West  Level Estimated
Fri 12:11:00 AM 34.4656 101.7906 315° West  Level Estimated
Fri 12:12:00 AM 34.5381 101.7018 315° West  Level Estimated
Fri 12:13:00 AM 34.6106 101.6128 315° West  Level Estimated
Fri 12:14:00 AM 34.6830 101.5236 315° West  Level Estimated
Fri 12:15:00 AM 34.7554 101.4343 315° West  Level Estimated
Fri 12:16:00 AM 34.8277 101.3449 315° West  Level Estimated
Fri 12:17:00 AM 34.8999 101.2552 315° West  Level Estimated
Fri 12:18:00 AM 34.9721 101.1655 314° West  Level Estimated
Fri 12:19:00 AM 35.0442 101.0755 314° West  Level Estimated
Fri 12:20:00 AM 35.1162 100.9854 314° West  Level Estimated
Fri 12:21:00 AM 35.1882 100.8952 314° West  Level Estimated
Fri 12:22:00 AM 35.2601 100.8048 314° West  Level Estimated
Fri 12:23:00 AM 35.3319 100.7142 314° West  Level Estimated
Fri 12:24:00 AM 35.4037 100.6235 314° West  Level Estimated
Fri 12:25:00 AM 35.4753 100.5326 314° West  Level Estimated
Fri 12:26:00 AM 35.5470 100.4415 314° West  Level Estimated
Fri 12:27:00 AM 35.6185 100.3503 314° West  Level Estimated
Fri 12:28:00 AM 35.6900 100.2589 314° West  Level Estimated
Fri 12:29:00 AM 35.7614 100.1674 314° West  Level Estimated
Fri 12:30:00 AM 35.8328 100.0756 314° West  Level Estimated
Fri 12:31:00 AM 35.9041 99.9838 314° West  Level Estimated
Fri 12:32:00 AM 35.9753 99.8917 314° West  Level Estimated
Fri 12:33:00 AM 36.0464 99.7995 314° West  Level Estimated
Fri 12:34:00 AM 36.1175 99.7071 314° West  Level Estimated
Fri 12:35:00 AM 36.1885 99.6146 314° West  Level Estimated
Fri 12:36:00 AM 36.2594 99.5219 314° West  Level Estimated
Fri 12:37:00 AM 36.3303 99.4290 313° West  Level Estimated
Fri 12:38:00 AM 36.4011 99.3360 313° West  Level Estimated
Fri 12:39:00 AM 36.4718 99.2427 313° West  Level Estimated
Fri 12:40:00 AM 36.5424 99.1493 313° West  Level Estimated
Fri 12:41:00 AM 36.6130 99.0558 313° West  Level Estimated
Fri 12:42:00 AM 36.6834 98.9621 313° West  Level Estimated
Fri 12:43:00 AM 36.7539 98.8681 313° West  Level Estimated
Fri 12:44:00 AM 36.8242 98.7741 313° West  Level Estimated
Fri 12:45:00 AM 36.8945 98.6798 313° West  Level Estimated
Fri 12:46:00 AM 36.9647 98.5854 313° West  Level Estimated
Fri 12:47:00 AM 37.0348 98.4908 313° West  Level Estimated
Fri 12:48:00 AM 37.1048 98.3960 313° West  Level Estimated
Fri 12:49:00 AM 37.1748 98.3011 313° West  Level Estimated
Fri 12:50:00 AM 37.2447 98.2060 313° West  Level Estimated
Fri 12:51:00 AM 37.3145 98.1107 313° West  Level Estimated
Fri 12:52:00 AM 37.3843 98.0152 313° West  Level Estimated
Fri 12:53:00 AM 37.4539 97.9195 313° West  Level Estimated
Fri 12:54:00 AM 37.5235 97.8237 312° West  Level Estimated
Fri 12:55:00 AM 37.5930 97.7277 312° West  Level Estimated
Fri 12:56:00 AM 37.6624 97.6315 312° West  Level Estimated
Fri 12:57:00 AM 37.7318 97.5351 312° West  Level Estimated
Fri 12:58:00 AM 37.8011 97.4386 312° West  Level Estimated
Fri 12:59:00 AM 37.8703 97.3419 312° West  Level Estimated
Fri 01:00:00 AM 37.9394 97.2449 312° West  Level Estimated
Fri 01:01:00 AM 38.0084 97.1478 312° West  Level Estimated
Fri 01:02:00 AM 38.0774 97.0506 312° West  Level Estimated
Fri 01:03:00 AM 38.1462 96.9531 312° West  Level Estimated
Fri 01:04:00 AM 38.2150 96.8555 312° West  Level Estimated
Fri 01:05:00 AM 38.2837 96.7576 312° West  Level Estimated
Fri 01:06:00 AM 38.3524 96.6596 312° West  Level Estimated
Fri 01:07:00 AM 38.4209 96.5614 312° West  Level Estimated
Fri 01:08:00 AM 38.4894 96.4630 312° West  Level Estimated
Fri 01:09:00 AM 38.5578 96.3644 312° West  Level Estimated
Fri 01:10:00 AM 38.6261 96.2657 312° West  Level Estimated
Fri 01:11:00 AM 38.6943 96.1667 311° West  Level Estimated
Fri 01:12:00 AM 38.7624 96.0676 311° West  Level Estimated
Fri 01:13:00 AM 38.8305 95.9682 311° West  Level Estimated
Fri 01:14:00 AM 38.8984 95.8687 311° West  Level Estimated
Fri 01:15:00 AM 38.9663 95.7690 311° West  Level Estimated
Fri 01:16:00 AM 39.0341 95.6691 311° West  Level Estimated
Fri 01:17:00 AM 39.1018 95.5690 311° West  Level Estimated
Fri 01:18:00 AM 39.1695 95.4687 311° West  Level Estimated
Fri 01:19:00 AM 39.2370 95.3683 311° West  Level Estimated
Fri 01:20:00 AM 39.3045 95.2676 311° West  Level Estimated
Fri 01:21:00 AM 39.3718 95.1667 311° West  Level Estimated
Fri 01:22:00 AM 39.4391 95.0657 311° West  Level Estimated
Fri 01:23:00 AM 39.5063 94.9644 311° West  Level Estimated
Fri 01:24:00 AM 39.5734 94.8630 311° West  Level Estimated
Fri 01:25:00 AM 39.6404 94.7613 311° West  Level Estimated
Fri 01:26:00 AM 39.7074 94.6594 311° West  Level Estimated
Fri 01:27:00 AM 39.7742 94.5574 310° West  Level Estimated
Fri 01:28:00 AM 39.8409 94.4552 310° West  Level Estimated
Fri 01:29:00 AM 39.9076 94.3527 310° West  Level Estimated
Fri 01:30:00 AM 39.9742 94.2501 310° West  Level Estimated
Fri 01:31:00 AM 40.0406 94.1472 310° West  Level Estimated
Fri 01:32:00 AM 40.1070 94.0442 310° West  Level Estimated
Fri 01:33:00 AM 40.1733 93.9410 310° West  Level Estimated
Fri 01:34:00 AM 40.2395 93.8375 310° West  Level Estimated
Fri 01:35:00 AM 40.3056 93.7339 310° West  Level Estimated
Fri 01:36:00 AM 40.3717 93.6300 310° West  Level Estimated
Fri 01:37:00 AM 40.4376 93.5260 310° West  Level Estimated
Fri 01:38:00 AM 40.5034 93.4217 310° West  Level Estimated
Fri 01:39:00 AM 40.5692 93.3173 310° West  Level Estimated
Fri 01:40:00 AM 40.6348 93.2126 310° West  Level Estimated
Fri 01:41:00 AM 40.7004 93.1077 310° West  Level Estimated
Fri 01:42:00 AM 40.7658 93.0026 309° West  Level Estimated
Fri 01:43:00 AM 40.8312 92.8973 309° West  Level Estimated
Fri 01:44:00 AM 40.8964 92.7919 309° West  Level Estimated
Fri 01:45:00 AM 40.9616 92.6862 309° West  Level Estimated
Fri 01:46:00 AM 41.0267 92.5803 309° West  Level Estimated
Fri 01:47:00 AM 41.0916 92.4741 309° West  Level Estimated
Fri 01:48:00 AM 41.1565 92.3678 309° West  Level Estimated
Fri 01:49:00 AM 41.2213 92.2613 309° West  Level Estimated
Fri 01:50:00 AM 41.2860 92.1545 309° West  Level Estimated
Fri 01:51:00 AM 41.3506 92.0475 309° West  Level Estimated
Fri 01:52:00 AM 41.4150 91.9404 309° West  Level Estimated
Fri 01:53:00 AM 41.4794 91.8330 309° West  Level Estimated
Fri 01:54:00 AM 41.5437 91.7254 309° West  Level Estimated
Fri 01:55:00 AM 41.6079 91.6176 309° West  Level Estimated
Fri 01:56:00 AM 41.6720 91.5095 308° West  Level Estimated
Fri 01:57:00 AM 41.7359 91.4013 308° West  Level Estimated
Fri 01:58:00 AM 41.7998 91.2928 308° West  Level Estimated
Fri 01:59:00 AM 41.8636 91.1841 308° West  Level Estimated
Fri 02:00:00 AM 41.9272 91.0752 308° West  Level Estimated
Fri 02:01:00 AM 41.9908 90.9661 308° West  Level Estimated
Fri 02:02:00 AM 42.0543 90.8568 308° West  Level Estimated
Fri 02:03:00 AM 42.1176 90.7473 308° West  Level Estimated
Fri 02:04:00 AM 42.1809 90.6375 308° West  Level Estimated
Fri 02:05:00 AM 42.2440 90.5275 308° West  Level Estimated
Fri 02:06:00 AM 42.3071 90.4173 308° West  Level Estimated
Fri 02:07:00 AM 42.3700 90.3069 308° West  Level Estimated
Fri 02:08:00 AM 42.4329 90.1962 308° West  Level Estimated
Fri 02:09:00 AM 42.4956 90.0853 308° West  Level Estimated
Fri 02:10:00 AM 42.5582 89.9743 307° West  Level Estimated
Fri 02:11:00 AM 42.6207 89.8629 307° West  Level Estimated
Fri 02:12:00 AM 42.6831 89.7514 307° West  Level Estimated
Fri 02:13:00 AM 42.7454 89.6396 307° West  Level Estimated
Fri 02:14:00 AM 42.8076 89.5276 307° West  Level Estimated
Fri 02:15:00 AM 42.8697 89.4154 307° West  Level Estimated
Fri 02:16:00 AM 42.9317 89.3030 307° West  Level Estimated
Fri 02:17:00 AM 42.9935 89.1903 307° West  Level Estimated
Fri 02:18:00 AM 43.0553 89.0774 307° West  Level Estimated
Fri 02:19:00 AM 43.1169 88.9643 307° West  Level Estimated
Fri 02:20:00 AM 43.1785 88.8510 307° West  Level Estimated
Fri 02:21:00 AM 43.2399 88.7374 307° West  Level Estimated
Fri 02:22:00 AM 43.3012 88.6236 307° West  Level Estimated
Fri 02:23:00 AM 43.3624 88.5095 306° West  Level Estimated
Fri 02:24:00 AM 43.4234 88.3953 306° West  Level Estimated
Fri 02:25:00 AM 43.4844 88.2808 306° West  Level Estimated
Fri 02:26:00 AM 43.5452 88.1660 306° West  Level Estimated
Fri 02:27:00 AM 43.6059 88.0511 306° West  Level Estimated
Fri 02:28:00 AM 43.6666 87.9359 306° West  Level Estimated
Fri 02:29:00 AM 43.7271 87.8205 306° West  Level Estimated
Fri 02:30:00 AM 43.7874 87.7048 306° West  Level Estimated
Fri 02:31:00 AM 43.8477 87.5889 306° West  Level Estimated
Fri 02:32:00 AM 43.9071 87.4742 306° West  Level Estimated
Fri 02:33:00 AM 43.9071 87.4742 144° Southeast  Level Estimated
Fri 02:34:00 AM 43.9071 87.4742 144° Southeast  Level Estimated
Fri 02:35:00 AM 43.9071 87.4742 144° Southeast  Level Estimated
Fri 02:36:00 AM 43.9071 87.4742 144° Southeast  Level Estimated
Fri 02:37:00 AM 43.9071 87.4742 144° Southeast  Level Estimated
Fri 02:38:00 AM 43.9071 87.4742 144° Southeast  Level Estimated
Fri 02:39:00 AM 43.9071 87.4742 144° Southeast  Level Estimated
Fri 02:40:00 AM 43.9071 87.4742 144° Southeast  Level Estimated
Fri 02:41:00 AM 43.9071 87.4742 144° Southeast  Level Estimated
Fri 02:42:00 AM 43.9071 87.4742 144° Southeast  Level Estimated
Fri 02:43:00 AM 43.9071 87.4742 144° Southeast  Level Estimated
Fri 02:44:00 AM 43.9071 87.4742 144° Southeast  Level Estimated
Fri 02:45:00 AM 43.9071 87.4742 144° Southeast  Level Estimated
Fri 02:46:00 AM 43.9071 87.4742 144° Southeast  Level Estimated
Fri 02:47:00 AM 43.9071 87.4742 144° Southeast  Level Estimated
Fri 02:48:00 AM 43.9071 87.4742 144° Southeast  Level Estimated

Login

Don't have an account? Register now (free) for customized features, flight alerts, and more!